sensor_id;sensor_type;location;lat;lon;timestamp;pressure;altitude;pressure_sealevel;temperature;humidity
34374;BME280;20637;55.770;37.592;2023-10-19T00:00:45;98699.31;;;6.74;78.28
34374;BME280;20637;55.770;37.592;2023-10-19T00:03:13;98701.13;;;6.73;78.56
34374;BME280;20637;55.770;37.592;2023-10-19T00:05:39;98702.13;;;6.72;78.29
34374;BME280;20637;55.770;37.592;2023-10-19T00:08:05;98702.13;;;6.72;78.03
34374;BME280;20637;55.770;37.592;2023-10-19T00:10:44;98701.81;;;6.75;78.47
34374;BME280;20637;55.770;37.592;2023-10-19T00:13:10;98704.66;;;6.82;78.20
34374;BME280;20637;55.770;37.592;2023-10-19T00:15:41;98702.84;;;6.82;78.26
34374;BME280;20637;55.770;37.592;2023-10-19T00:18:19;98696.63;;;6.82;78.42
34374;BME280;20637;55.770;37.592;2023-10-19T00:20:50;98699.31;;;6.82;78.19
34374;BME280;20637;55.770;37.592;2023-10-19T00:23:20;98700.16;;;6.82;78.11
34374;BME280;20637;55.770;37.592;2023-10-19T00:25:56;98701.31;;;6.80;78.47
34374;BME280;20637;55.770;37.592;2023-10-19T00:28:21;98697.47;;;6.74;77.97
34374;BME280;20637;55.770;37.592;2023-10-19T00:30:48;98697.81;;;6.71;78.11
34374;BME280;20637;55.770;37.592;2023-10-19T00:33:16;98695.13;;;6.71;78.28
34374;BME280;20637;55.770;37.592;2023-10-19T00:35:43;98695.75;;;6.65;78.02
34374;BME280;20637;55.770;37.592;2023-10-19T00:38:27;98693.44;;;6.62;78.11
34374;BME280;20637;55.770;37.592;2023-10-19T00:40:53;98693.56;;;6.60;78.39
34374;BME280;20637;55.770;37.592;2023-10-19T00:43:30;98695.59;;;6.58;78.46
34374;BME280;20637;55.770;37.592;2023-10-19T00:45:59;98692.44;;;6.63;78.77
34374;BME280;20637;55.770;37.592;2023-10-19T00:48:27;98694.63;;;6.67;78.50
34374;BME280;20637;55.770;37.592;2023-10-19T00:50:53;98696.78;;;6.64;78.47
34374;BME280;20637;55.770;37.592;2023-10-19T00:53:33;98693.28;;;6.63;78.49
34374;BME280;20637;55.770;37.592;2023-10-19T00:55:58;98700.28;;;6.64;78.37
34374;BME280;20637;55.770;37.592;2023-10-19T00:58:25;98695.28;;;6.69;78.58
34374;BME280;20637;55.770;37.592;2023-10-19T01:00:55;98702.47;;;6.69;78.24
34374;BME280;20637;55.770;37.592;2023-10-19T01:03:20;98702.13;;;6.72;78.15
34374;BME280;20637;55.770;37.592;2023-10-19T01:05:46;98695.13;;;6.71;78.02
34374;BME280;20637;55.770;37.592;2023-10-19T01:08:15;98693.44;;;6.70;77.97
34374;BME280;20637;55.770;37.592;2023-10-19T01:10:55;98694.09;;;6.72;78.15
34374;BME280;20637;55.770;37.592;2023-10-19T01:13:22;98693.44;;;6.78;78.51
34374;BME280;20637;55.770;37.592;2023-10-19T01:15:52;98688.44;;;6.83;78.17
34374;BME280;20637;55.770;37.592;2023-10-19T01:18:18;98687.59;;;6.83;77.81
34374;BME280;20637;55.770;37.592;2023-10-19T01:20:43;98687.91;;;6.80;77.63
34374;BME280;20637;55.770;37.592;2023-10-19T01:23:20;98697.47;;;6.74;77.25
34374;BME280;20637;55.770;37.592;2023-10-19T01:25:49;98690.59;;;6.72;77.19
34374;BME280;20637;55.770;37.592;2023-10-19T01:28:28;98687.91;;;6.72;77.38
34374;BME280;20637;55.770;37.592;2023-10-19T01:31:16;98688.06;;;6.70;77.57
34374;BME280;20637;55.770;37.592;2023-10-19T01:33:43;98686.88;;;6.72;77.70
34374;BME280;20637;55.770;37.592;2023-10-19T01:36:09;98690.91;;;6.77;77.21
34374;BME280;20637;55.770;37.592;2023-10-19T01:39:01;98682.03;;;6.76;77.56
34374;BME280;20637;55.770;37.592;2023-10-19T01:41:28;98686.75;;;6.82;77.77
34374;BME280;20637;55.770;37.592;2023-10-19T01:43:57;98681.53;;;6.89;77.76
34374;BME280;20637;55.770;37.592;2023-10-19T01:46:29;98683.72;;;6.93;77.77
34374;BME280;20637;55.770;37.592;2023-10-19T01:48:59;98684.38;;;6.95;77.71
34374;BME280;20637;55.770;37.592;2023-10-19T01:51:27;98691.91;;;6.92;77.63
34374;BME280;20637;55.770;37.592;2023-10-19T01:53:54;98684.56;;;6.86;77.50
34374;BME280;20637;55.770;37.592;2023-10-19T01:56:21;98682.72;;;6.86;77.40
34374;BME280;20637;55.770;37.592;2023-10-19T01:58:47;98689.78;;;6.87;77.59
34374;BME280;20637;55.770;37.592;2023-10-19T02:01:14;98685.56;;;6.85;77.23
34374;BME280;20637;55.770;37.592;2023-10-19T02:03:40;98684.72;;;6.84;77.13
34374;BME280;20637;55.770;37.592;2023-10-19T02:06:09;98683.06;;;6.83;76.87
34374;BME280;20637;55.770;37.592;2023-10-19T02:09:02;98682.22;;;6.83;76.97
34374;BME280;20637;55.770;37.592;2023-10-19T02:11:44;98681.72;;;6.87;76.88
34374;BME280;20637;55.770;37.592;2023-10-19T02:14:12;98679.03;;;6.87;77.23
34374;BME280;20637;55.770;37.592;2023-10-19T02:16:43;98686.75;;;6.90;77.08
34374;BME280;20637;55.770;37.592;2023-10-19T02:19:09;98678.69;;;6.90;76.84
34374;BME280;20637;55.770;37.592;2023-10-19T02:21:35;98677.84;;;6.90;77.08
34374;BME280;20637;55.770;37.592;2023-10-19T02:24:10;98677.69;;;6.83;76.41
34374;BME280;20637;55.770;37.592;2023-10-19T02:26:39;98677.34;;;6.78;76.86
34374;BME280;20637;55.770;37.592;2023-10-19T02:29:05;98683.72;;;6.77;76.52
34374;BME280;20637;55.770;37.592;2023-10-19T02:31:42;98681.88;;;6.78;76.97
34374;BME280;20637;55.770;37.592;2023-10-19T02:34:08;98686.41;;;6.77;76.70
34374;BME280;20637;55.770;37.592;2023-10-19T02:36:40;98690.06;;;6.76;77.06
34374;BME280;20637;55.770;37.592;2023-10-19T02:39:07;98681.03;;;6.77;76.96
34374;BME280;20637;55.770;37.592;2023-10-19T02:41:36;98682.72;;;6.78;77.21
34374;BME280;20637;55.770;37.592;2023-10-19T02:44:07;98691.59;;;6.79;77.11
34374;BME280;20637;55.770;37.592;2023-10-19T02:46:43;98683.06;;;6.75;76.82
34374;BME280;20637;55.770;37.592;2023-10-19T02:49:09;98684.06;;;6.74;77.31
34374;BME280;20637;55.770;37.592;2023-10-19T02:51:39;98686.03;;;6.72;77.19
34374;BME280;20637;55.770;37.592;2023-10-19T02:54:05;98683.56;;;6.70;77.28
34374;BME280;20637;55.770;37.592;2023-10-19T02:56:33;98686.56;;;6.67;77.35
34374;BME280;20637;55.770;37.592;2023-10-19T02:59:01;98680.38;;;6.67;77.09
34374;BME280;20637;55.770;37.592;2023-10-19T03:01:29;98683.56;;;6.70;77.27
34374;BME280;20637;55.770;37.592;2023-10-19T03:03:58;98682.56;;;6.72;77.09
34374;BME280;20637;55.770;37.592;2023-10-19T03:06:27;98674.16;;;6.75;77.55
34374;BME280;20637;55.770;37.592;2023-10-19T03:09:03;98681.88;;;6.78;77.90
34374;BME280;20637;55.770;37.592;2023-10-19T03:11:41;98675.66;;;6.77;77.24
34374;BME280;20637;55.770;37.592;2023-10-19T03:14:07;98677.34;;;6.78;77.08
34374;BME280;20637;55.770;37.592;2023-10-19T03:16:33;98679.84;;;6.80;77.56
34374;BME280;20637;55.770;37.592;2023-10-19T03:19:00;98680.03;;;6.78;77.38
34374;BME280;20637;55.770;37.592;2023-10-19T03:21:26;98684.91;;;6.75;77.77
34374;BME280;20637;55.770;37.592;2023-10-19T03:23:55;98678.00;;;6.72;77.17
34374;BME280;20637;55.770;37.592;2023-10-19T03:26:22;98681.53;;;6.72;77.65
34374;BME280;20637;55.770;37.592;2023-10-19T03:28:49;98686.72;;;6.74;77.37
34374;BME280;20637;55.770;37.592;2023-10-19T03:31:22;98677.00;;;6.73;77.62
34374;BME280;20637;55.770;37.592;2023-10-19T03:33:48;98672.47;;;6.74;77.66
34374;BME280;20637;55.770;37.592;2023-10-19T03:36:17;98683.06;;;6.75;77.66
34374;BME280;20637;55.770;37.592;2023-10-19T03:38:42;98677.50;;;6.77;77.62
34374;BME280;20637;55.770;37.592;2023-10-19T03:41:09;98681.22;;;6.76;77.57
34374;BME280;20637;55.770;37.592;2023-10-19T03:43:36;98684.91;;;6.75;77.53
34374;BME280;20637;55.770;37.592;2023-10-19T03:46:05;98684.06;;;6.74;77.61
34374;BME280;20637;55.770;37.592;2023-10-19T03:48:39;98681.38;;;6.74;77.46
34374;BME280;20637;55.770;37.592;2023-10-19T03:51:05;98692.09;;;6.74;77.68
34374;BME280;20637;55.770;37.592;2023-10-19T03:53:30;98689.75;;;6.71;77.59
34374;BME280;20637;55.770;37.592;2023-10-19T03:55:57;98690.59;;;6.72;77.59
34374;BME280;20637;55.770;37.592;2023-10-19T03:58:23;98689.06;;;6.77;77.87
34374;BME280;20637;55.770;37.592;2023-10-19T04:00:48;98687.59;;;6.83;77.92
34374;BME280;20637;55.770;37.592;2023-10-19T04:03:17;98684.91;;;6.91;77.74
34374;BME280;20637;55.770;37.592;2023-10-19T04:05:43;98685.41;;;6.94;77.91
34374;BME280;20637;55.770;37.592;2023-10-19T04:08:12;98685.41;;;6.94;77.51
34374;BME280;20637;55.770;37.592;2023-10-19T04:10:45;98682.72;;;6.94;77.61
34374;BME280;20637;55.770;37.592;2023-10-19T04:13:13;98693.59;;;6.93;77.80
34374;BME280;20637;55.770;37.592;2023-10-19T04:15:38;98685.72;;;6.91;77.39
34374;BME280;20637;55.770;37.592;2023-10-19T04:18:04;98684.91;;;6.91;77.64
34374;BME280;20637;55.770;37.592;2023-10-19T04:20:35;98693.94;;;6.90;77.75
34374;BME280;20637;55.770;37.592;2023-10-19T04:23:07;98694.09;;;6.88;77.71
34374;BME280;20637;55.770;37.592;2023-10-19T04:25:36;98693.25;;;6.88;77.63
34374;BME280;20637;55.770;37.592;2023-10-19T04:28:01;98691.09;;;6.91;77.94
34374;BME280;20637;55.770;37.592;2023-10-19T04:30:28;98688.41;;;6.91;77.31
34374;BME280;20637;55.770;37.592;2023-10-19T04:32:54;98684.22;;;6.89;76.88
34374;BME280;20637;55.770;37.592;2023-10-19T04:35:22;98698.47;;;6.89;76.80
34374;BME280;20637;55.770;37.592;2023-10-19T04:37:54;98688.41;;;6.91;76.84
34374;BME280;20637;55.770;37.592;2023-10-19T04:40:19;98692.41;;;6.95;76.67
34374;BME280;20637;55.770;37.592;2023-10-19T04:42:45;98700.16;;;6.98;76.46
34374;BME280;20637;55.770;37.592;2023-10-19T04:45:11;98693.75;;;6.99;76.44
34374;BME280;20637;55.770;37.592;2023-10-19T04:47:37;98692.25;;;7.05;76.80
34374;BME280;20637;55.770;37.592;2023-10-19T04:50:03;98696.13;;;7.02;76.55
34374;BME280;20637;55.770;37.592;2023-10-19T04:52:29;98686.41;;;7.01;76.56
34374;BME280;20637;55.770;37.592;2023-10-19T04:54:54;98696.44;;;6.99;76.95
34374;BME280;20637;55.770;37.592;2023-10-19T04:57:20;98696.44;;;6.99;76.65
34374;BME280;20637;55.770;37.592;2023-10-19T04:59:48;98699.81;;;7.01;77.14
34374;BME280;20637;55.770;37.592;2023-10-19T05:02:14;98700.47;;;7.03;76.86
34374;BME280;20637;55.770;37.592;2023-10-19T05:04:39;98699.31;;;7.06;77.02
34374;BME280;20637;55.770;37.592;2023-10-19T05:07:06;98696.28;;;7.09;77.09
34374;BME280;20637;55.770;37.592;2023-10-19T05:09:31;98691.25;;;7.14;77.44
34374;BME280;20637;55.770;37.592;2023-10-19T05:11:57;98688.41;;;7.15;77.33
34374;BME280;20637;55.770;37.592;2023-10-19T05:14:22;98690.91;;;7.17;77.25
34374;BME280;20637;55.770;37.592;2023-10-19T05:16:48;98700.47;;;7.19;76.40
34374;BME280;20637;55.770;37.592;2023-10-19T05:19:14;98700.13;;;7.23;76.98
34374;BME280;20637;55.770;37.592;2023-10-19T05:21:40;98697.94;;;7.26;76.51
34374;BME280;20637;55.770;37.592;2023-10-19T05:24:05;98698.13;;;7.33;76.36
34374;BME280;20637;55.770;37.592;2023-10-19T05:26:33;98698.59;;;7.36;77.15
34374;BME280;20637;55.770;37.592;2023-10-19T05:28:58;98707.00;;;7.41;77.04
34374;BME280;20637;55.770;37.592;2023-10-19T05:31:24;98695.06;;;7.44;76.69
34374;BME280;20637;55.770;37.592;2023-10-19T05:33:50;98705.63;;;7.45;76.52
34374;BME280;20637;55.770;37.592;2023-10-19T05:36:15;98708.16;;;7.47;76.28
34374;BME280;20637;55.770;37.592;2023-10-19T05:38:42;98708.81;;;7.49;76.45
34374;BME280;20637;55.770;37.592;2023-10-19T05:41:08;98710.19;;;7.45;75.74
34374;BME280;20637;55.770;37.592;2023-10-19T05:43:36;98706.81;;;7.43;75.47
34374;BME280;20637;55.770;37.592;2023-10-19T05:46:02;98713.19;;;7.42;75.56
34374;BME280;20637;55.770;37.592;2023-10-19T05:48:27;98713.53;;;7.39;75.92
34374;BME280;20637;55.770;37.592;2023-10-19T05:50:53;98712.19;;;7.35;74.86
34374;BME280;20637;55.770;37.592;2023-10-19T05:53:18;98715.22;;;7.32;74.71
34374;BME280;20637;55.770;37.592;2023-10-19T05:55:44;98712.19;;;7.27;74.85
34374;BME280;20637;55.770;37.592;2023-10-19T05:58:09;98713.53;;;7.23;74.93
34374;BME280;20637;55.770;37.592;2023-10-19T06:00:35;98713.53;;;7.23;75.53
34374;BME280;20637;55.770;37.592;2023-10-19T06:03:00;98718.75;;;7.24;75.49
34374;BME280;20637;55.770;37.592;2023-10-19T06:05:26;98715.22;;;7.32;75.77
34374;BME280;20637;55.770;37.592;2023-10-19T06:07:51;98716.91;;;7.41;75.80
34374;BME280;20637;55.770;37.592;2023-10-19T06:10:18;98715.72;;;7.43;75.88
34374;BME280;20637;55.770;37.592;2023-10-19T06:12:45;98712.03;;;7.44;75.54
34374;BME280;20637;55.770;37.592;2023-10-19T06:15:11;98720.56;;;7.48;76.03
34374;BME280;20637;55.770;37.592;2023-10-19T06:17:37;98721.41;;;7.48;75.83
34374;BME280;20637;55.770;37.592;2023-10-19T06:20:04;98710.81;;;7.55;75.66
34374;BME280;20637;55.770;37.592;2023-10-19T06:22:30;98716.53;;;7.60;75.74
34374;BME280;20637;55.770;37.592;2023-10-19T06:24:55;98715.47;;;7.69;75.85
34374;BME280;20637;55.770;37.592;2023-10-19T06:27:20;98713.97;;;7.75;76.36
34374;BME280;20637;55.770;37.592;2023-10-19T06:29:46;98719.66;;;7.80;76.10
34374;BME280;20637;55.770;37.592;2023-10-19T06:32:11;98722.16;;;7.81;76.08
34374;BME280;20637;55.770;37.592;2023-10-19T06:34:38;98725.69;;;7.82;75.71
34374;BME280;20637;55.770;37.592;2023-10-19T06:37:03;98719.47;;;7.81;75.54
34374;BME280;20637;55.770;37.592;2023-10-19T06:39:32;98723.16;;;7.80;75.62
34374;BME280;20637;55.770;37.592;2023-10-19T06:41:57;98713.09;;;7.82;76.07
34374;BME280;20637;55.770;37.592;2023-10-19T06:44:23;98711.25;;;7.83;75.39
34374;BME280;20637;55.770;37.592;2023-10-19T06:46:48;98715.25;;;7.87;76.05
34374;BME280;20637;55.770;37.592;2023-10-19T06:49:14;98711.72;;;7.94;75.72
34374;BME280;20637;55.770;37.592;2023-10-19T06:51:40;98714.69;;;7.99;75.30
34374;BME280;20637;55.770;37.592;2023-10-19T06:54:06;98719.38;;;8.05;75.93
34374;BME280;20637;55.770;37.592;2023-10-19T06:56:33;98719.06;;;8.00;74.89
34374;BME280;20637;55.770;37.592;2023-10-19T06:59:02;98719.09;;;7.92;74.04
34374;BME280;20637;55.770;37.592;2023-10-19T07:01:30;98715.25;;;7.87;74.29
34374;BME280;20637;55.770;37.592;2023-10-19T07:03:57;98719.59;;;7.88;74.50
34374;BME280;20637;55.770;37.592;2023-10-19T07:06:23;98720.44;;;7.88;74.81
34374;BME280;20637;55.770;37.592;2023-10-19T07:08:49;98718.09;;;7.93;74.10
34374;BME280;20637;55.770;37.592;2023-10-19T07:11:14;98720.13;;;7.91;74.35
34374;BME280;20637;55.770;37.592;2023-10-19T07:13:40;98722.81;;;7.91;73.95
34374;BME280;20637;55.770;37.592;2023-10-19T07:16:05;98730.53;;;7.94;73.91
34374;BME280;20637;55.770;37.592;2023-10-19T07:18:31;98725.44;;;7.99;73.93
34374;BME280;20637;55.770;37.592;2023-10-19T07:20:56;98724.44;;;8.00;74.25
34374;BME280;20637;55.770;37.592;2023-10-19T07:23:28;98723.59;;;8.00;73.68
34374;BME280;20637;55.770;37.592;2023-10-19T07:25:54;98733.34;;;8.01;74.36
34374;BME280;20637;55.770;37.592;2023-10-19T07:28:21;98739.56;;;8.01;74.33
34374;BME280;20637;55.770;37.592;2023-10-19T07:30:47;98734.53;;;7.98;74.13
34374;BME280;20637;55.770;37.592;2023-10-19T07:33:13;98733.50;;;7.99;73.87
34374;BME280;20637;55.770;37.592;2023-10-19T07:35:48;98737.72;;;8.02;74.32
34374;BME280;20637;55.770;37.592;2023-10-19T07:38:17;98738.22;;;7.97;73.69
34374;BME280;20637;55.770;37.592;2023-10-19T07:40:46;98738.06;;;7.99;73.75
34374;BME280;20637;55.770;37.592;2023-10-19T07:43:11;98740.75;;;7.99;74.01
34374;BME280;20637;55.770;37.592;2023-10-19T07:45:37;98740.41;;;8.02;73.75
34374;BME280;20637;55.770;37.592;2023-10-19T07:48:03;98741.03;;;8.04;74.17
34374;BME280;20637;55.770;37.592;2023-10-19T07:50:32;98743.06;;;8.10;73.62
34374;BME280;20637;55.770;37.592;2023-10-19T07:52:58;98738.03;;;8.07;72.59
34374;BME280;20637;55.770;37.592;2023-10-19T07:55:23;98738.88;;;7.99;72.83
34374;BME280;20637;55.770;37.592;2023-10-19T07:57:49;98742.09;;;7.95;72.02
34374;BME280;20637;55.770;37.592;2023-10-19T08:00:15;98738.09;;;7.91;72.02
34374;BME280;20637;55.770;37.592;2023-10-19T08:02:42;98739.94;;;7.90;72.73
34374;BME280;20637;55.770;37.592;2023-10-19T08:05:10;98743.63;;;7.89;72.18
34374;BME280;20637;55.770;37.592;2023-10-19T08:07:37;98742.63;;;7.90;72.33
34374;BME280;20637;55.770;37.592;2023-10-19T08:10:04;98750.31;;;7.93;72.44
34374;BME280;20637;55.770;37.592;2023-10-19T08:12:31;98745.13;;;7.92;72.59
34374;BME280;20637;55.770;37.592;2023-10-19T08:14:58;98739.44;;;7.87;72.51
34374;BME280;20637;55.770;37.592;2023-10-19T08:17:24;98745.81;;;7.86;72.89
34374;BME280;20637;55.770;37.592;2023-10-19T08:19:50;98748.84;;;7.91;72.38
34374;BME280;20637;55.770;37.592;2023-10-19T08:22:15;98747.66;;;7.93;72.64
34374;BME280;20637;55.770;37.592;2023-10-19T08:24:41;98751.34;;;7.92;72.68
34374;BME280;20637;55.770;37.592;2023-10-19T08:27:11;98748.00;;;7.90;72.50
34374;BME280;20637;55.770;37.592;2023-10-19T08:29:37;98755.56;;;7.87;72.05
34374;BME280;20637;55.770;37.592;2023-10-19T08:32:02;98749.16;;;7.88;72.37
34374;BME280;20637;55.770;37.592;2023-10-19T08:34:28;98755.34;;;7.96;72.94
34374;BME280;20637;55.770;37.592;2023-10-19T08:36:55;98753.16;;;8.00;72.20
34374;BME280;20637;55.770;37.592;2023-10-19T08:39:20;98745.78;;;8.02;72.86
34374;BME280;20637;55.770;37.592;2023-10-19T08:41:46;98755.31;;;8.04;72.04
34374;BME280;20637;55.770;37.592;2023-10-19T08:44:14;98757.00;;;8.05;72.82
34374;BME280;20637;55.770;37.592;2023-10-19T08:46:43;98755.69;;;8.01;72.22
34374;BME280;20637;55.770;37.592;2023-10-19T08:49:10;98761.06;;;8.01;72.60
34374;BME280;20637;55.770;37.592;2023-10-19T08:51:37;98761.06;;;8.01;72.46
34374;BME280;20637;55.770;37.592;2023-10-19T08:54:04;98760.91;;;8.03;72.25
34374;BME280;20637;55.770;37.592;2023-10-19T08:56:30;98761.91;;;8.02;72.66
34374;BME280;20637;55.770;37.592;2023-10-19T08:58:56;98757.66;;;8.07;72.37
34374;BME280;20637;55.770;37.592;2023-10-19T09:01:21;98763.72;;;8.09;72.48
34374;BME280;20637;55.770;37.592;2023-10-19T09:03:49;98761.69;;;8.11;72.68
34374;BME280;20637;55.770;37.592;2023-10-19T09:06:15;98758.66;;;8.14;72.83
34374;BME280;20637;55.770;37.592;2023-10-19T09:08:40;98765.38;;;8.19;72.77
34374;BME280;20637;55.770;37.592;2023-10-19T09:11:09;98764.03;;;8.14;72.82
34374;BME280;20637;55.770;37.592;2023-10-19T09:13:47;98771.94;;;8.08;72.55
34374;BME280;20637;55.770;37.592;2023-10-19T09:16:13;98775.16;;;8.03;72.59
34374;BME280;20637;55.770;37.592;2023-10-19T09:18:39;98773.97;;;8.06;73.49
34374;BME280;20637;55.770;37.592;2023-10-19T09:21:06;98783.41;;;8.02;73.37
34374;BME280;20637;55.770;37.592;2023-10-19T09:23:32;98776.34;;;8.01;73.29
34374;BME280;20637;55.770;37.592;2023-10-19T09:25:59;98775.69;;;7.99;72.78
34374;BME280;20637;55.770;37.592;2023-10-19T09:28:28;98783.56;;;8.00;72.61
34374;BME280;20637;55.770;37.592;2023-10-19T09:30:54;98783.03;;;8.05;72.71
34374;BME280;20637;55.770;37.592;2023-10-19T09:33:20;98777.31;;;8.08;73.14
34374;BME280;20637;55.770;37.592;2023-10-19T09:35:47;98781.69;;;8.09;72.74
34374;BME280;20637;55.770;37.592;2023-10-19T09:38:16;98773.47;;;8.10;73.06
34374;BME280;20637;55.770;37.592;2023-10-19T09:40:41;98778.28;;;8.15;72.78
34374;BME280;20637;55.770;37.592;2023-10-19T09:43:13;98782.81;;;8.23;73.39
34374;BME280;20637;55.770;37.592;2023-10-19T09:45:41;98782.81;;;8.31;73.54
34374;BME280;20637;55.770;37.592;2023-10-19T09:48:07;98774.41;;;8.34;73.15
34374;BME280;20637;55.770;37.592;2023-10-19T09:50:33;98776.22;;;8.41;73.81
34374;BME280;20637;55.770;37.592;2023-10-19T09:52:59;98775.50;;;8.47;73.29
34374;BME280;20637;55.770;37.592;2023-10-19T09:55:28;98776.19;;;8.49;73.28
34374;BME280;20637;55.770;37.592;2023-10-19T09:58:06;98775.00;;;8.52;73.02
34374;BME280;20637;55.770;37.592;2023-10-19T10:00:35;98771.94;;;8.55;73.30
34374;BME280;20637;55.770;37.592;2023-10-19T10:03:00;98778.47;;;8.60;73.97
34374;BME280;20637;55.770;37.592;2023-10-19T10:10:43;98784.19;;;8.57;73.62
34374;BME280;20637;55.770;37.592;2023-10-19T10:15:52;98782.63;;;8.40;72.53
34374;BME280;20637;55.770;37.592;2023-10-19T10:18:18;98777.75;;;8.36;72.96
34374;BME280;20637;55.770;37.592;2023-10-19T10:20:44;98774.41;;;8.34;72.84
34374;BME280;20637;55.770;37.592;2023-10-19T10:23:19;98778.75;;;8.35;72.81
34374;BME280;20637;55.770;37.592;2023-10-19T10:25:46;98784.66;;;8.30;72.24
34374;BME280;20637;55.770;37.592;2023-10-19T10:28:13;98783.13;;;8.28;72.05
34374;BME280;20637;55.770;37.592;2023-10-19T10:31:06;98783.13;;;8.28;72.61
34374;BME280;20637;55.770;37.592;2023-10-19T10:33:37;98774.75;;;8.31;71.84
34374;BME280;20637;55.770;37.592;2023-10-19T10:36:04;98783.28;;;8.34;72.56
34374;BME280;20637;55.770;37.592;2023-10-19T10:38:33;98780.28;;;8.37;71.83
34374;BME280;20637;55.770;37.592;2023-10-19T10:40:58;98777.22;;;8.40;72.61
34374;BME280;20637;55.770;37.592;2023-10-19T10:43:24;98776.88;;;8.43;72.52
34374;BME280;20637;55.770;37.592;2023-10-19T10:45:49;98784.41;;;8.48;72.29
34374;BME280;20637;55.770;37.592;2023-10-19T10:48:16;98774.78;;;8.53;71.82
34374;BME280;20637;55.770;37.592;2023-10-19T10:50:41;98780.84;;;8.55;71.79
34374;BME280;20637;55.770;37.592;2023-10-19T10:53:10;98786.41;;;8.54;71.36
34374;BME280;20637;55.770;37.592;2023-10-19T10:55:36;98792.31;;;8.49;71.56
34374;BME280;20637;55.770;37.592;2023-10-19T10:58:02;98781.72;;;8.48;71.50
34374;BME280;20637;55.770;37.592;2023-10-19T11:00:27;98782.75;;;8.47;70.83
34374;BME280;20637;55.770;37.592;2023-10-19T11:03:00;98795.66;;;8.51;71.15
34374;BME280;20637;55.770;37.592;2023-10-19T11:05:25;98779.16;;;8.54;71.31
34374;BME280;20637;55.770;37.592;2023-10-19T11:08:07;98792.59;;;8.63;71.62
34374;BME280;20637;55.770;37.592;2023-10-19T11:10:34;98792.06;;;8.67;71.89
34374;BME280;20637;55.770;37.592;2023-10-19T11:13:01;98794.88;;;8.74;72.16
34374;BME280;20637;55.770;37.592;2023-10-19T11:15:27;98785.44;;;8.78;72.14
34374;BME280;20637;55.770;37.592;2023-10-19T11:17:52;98795.19;;;8.79;72.21
34374;BME280;20637;55.770;37.592;2023-10-19T11:20:22;98785.25;;;8.79;72.35
34374;BME280;20637;55.770;37.592;2023-10-19T11:22:48;98786.94;;;8.80;72.61
34374;BME280;20637;55.770;37.592;2023-10-19T11:25:18;98784.53;;;8.85;72.25
34374;BME280;20637;55.770;37.592;2023-10-19T11:27:44;98790.59;;;8.87;72.42
34374;BME280;20637;55.770;37.592;2023-10-19T11:30:10;98790.06;;;8.92;72.60
34374;BME280;20637;55.770;37.592;2023-10-19T11:32:37;98786.19;;;8.94;72.39
34374;BME280;20637;55.770;37.592;2023-10-19T11:35:06;98783.13;;;8.97;72.87
34374;BME280;20637;55.770;37.592;2023-10-19T11:37:47;98787.50;;;8.98;72.71
34374;BME280;20637;55.770;37.592;2023-10-19T11:40:13;98785.97;;;8.96;72.79
34374;BME280;20637;55.770;37.592;2023-10-19T11:42:39;98789.88;;;8.93;72.54
34374;BME280;20637;55.770;37.592;2023-10-19T11:45:05;98784.97;;;8.97;72.84
34374;BME280;20637;55.770;37.592;2023-10-19T11:47:31;98786.50;;;8.99;72.78
34374;BME280;20637;55.770;37.592;2023-10-19T11:49:57;98787.50;;;8.98;72.80
34374;BME280;20637;55.770;37.592;2023-10-19T11:52:22;98775.88;;;8.98;72.76
34374;BME280;20637;55.770;37.592;2023-10-19T11:54:48;98782.13;;;8.98;72.96
34374;BME280;20637;55.770;37.592;2023-10-19T11:57:13;98780.44;;;8.97;72.81
34374;BME280;20637;55.770;37.592;2023-10-19T11:59:39;98783.97;;;8.98;72.29
34374;BME280;20637;55.770;37.592;2023-10-19T12:02:06;98792.41;;;8.95;72.78
34374;BME280;20637;55.770;37.592;2023-10-19T12:04:32;98790.25;;;8.90;72.17
34374;BME280;20637;55.770;37.592;2023-10-19T12:07:01;98789.56;;;8.88;71.40
34374;BME280;20637;55.770;37.592;2023-10-19T12:09:26;98789.94;;;8.85;71.90
34374;BME280;20637;55.770;37.592;2023-10-19T12:11:53;98786.59;;;8.83;71.95
34374;BME280;20637;55.770;37.592;2023-10-19T12:14:19;98791.00;;;8.76;71.13
34374;BME280;20637;55.770;37.592;2023-10-19T12:16:46;98781.63;;;8.72;70.75
34374;BME280;20637;55.770;37.592;2023-10-19T12:19:12;98787.31;;;8.69;70.97
34374;BME280;20637;55.770;37.592;2023-10-19T12:21:39;98782.66;;;8.63;71.58
34374;BME280;20637;55.770;37.592;2023-10-19T12:24:06;98789.56;;;8.57;71.42
34374;BME280;20637;55.770;37.592;2023-10-19T12:26:33;98792.25;;;8.57;71.35
34374;BME280;20637;55.770;37.592;2023-10-19T12:28:58;98792.59;;;8.63;71.67
34374;BME280;20637;55.770;37.592;2023-10-19T12:31:23;98801.34;;;8.65;72.08
34374;BME280;20637;55.770;37.592;2023-10-19T12:33:50;98793.41;;;8.63;72.27
34374;BME280;20637;55.770;37.592;2023-10-19T12:36:15;98802.50;;;8.62;72.04
34374;BME280;20637;55.770;37.592;2023-10-19T12:38:53;98809.59;;;8.55;71.67
34374;BME280;20637;55.770;37.592;2023-10-19T12:41:20;98798.72;;;8.48;71.69
34374;BME280;20637;55.770;37.592;2023-10-19T12:44:06;98807.13;;;8.45;72.61
34374;BME280;20637;55.770;37.592;2023-10-19T12:46:34;98802.94;;;8.43;72.22
34374;BME280;20637;55.770;37.592;2023-10-19T12:49:04;98798.91;;;8.39;72.32
34374;BME280;20637;55.770;37.592;2023-10-19T12:51:29;98794.56;;;8.38;72.78
34374;BME280;20637;55.770;37.592;2023-10-19T12:53:55;98804.47;;;8.37;72.14
34374;BME280;20637;55.770;37.592;2023-10-19T12:56:21;98798.38;;;8.43;72.18
34374;BME280;20637;55.770;37.592;2023-10-19T12:58:49;98800.94;;;8.37;72.58
34374;BME280;20637;55.770;37.592;2023-10-19T13:01:15;98803.78;;;8.27;72.13
34374;BME280;20637;55.770;37.592;2023-10-19T13:03:45;98795.06;;;8.25;72.49
34374;BME280;20637;55.770;37.592;2023-10-19T13:06:13;98804.31;;;8.31;72.30
34374;BME280;20637;55.770;37.592;2023-10-19T13:08:39;98795.72;;;8.35;72.73
34374;BME280;20637;55.770;37.592;2023-10-19T13:11:08;98796.56;;;8.36;72.44